sensor_id;sensor_type;location;lat;lon;timestamp;P1;durP1;ratioP1;P2;durP2;ratioP2
21392;SDS011;10857;52.228;21.026;2024-03-22T00:01:46;71.47;;;39.93;;
21392;SDS011;10857;52.228;21.026;2024-03-22T00:04:13;81.90;;;40.07;;
21392;SDS011;10857;52.228;21.026;2024-03-22T00:06:41;72.83;;;40.07;;
21392;SDS011;10857;52.228;21.026;2024-03-22T00:09:08;75.43;;;41.17;;
21392;SDS011;10857;52.228;21.026;2024-03-22T00:11:35;74.37;;;39.87;;
21392;SDS011;10857;52.228;21.026;2024-03-22T00:14:02;79.77;;;41.60;;
21392;SDS011;10857;52.228;21.026;2024-03-22T00:16:28;78.60;;;41.87;;
21392;SDS011;10857;52.228;21.026;2024-03-22T00:18:55;80.57;;;43.43;;
21392;SDS011;10857;52.228;21.026;2024-03-22T00:21:21;75.20;;;42.10;;
21392;SDS011;10857;52.228;21.026;2024-03-22T00:23:48;84.93;;;44.00;;
21392;SDS011;10857;52.228;21.026;2024-03-22T00:26:14;81.13;;;43.77;;
21392;SDS011;10857;52.228;21.026;2024-03-22T00:28:40;83.70;;;44.13;;
21392;SDS011;10857;52.228;21.026;2024-03-22T00:31:06;86.60;;;44.40;;
21392;SDS011;10857;52.228;21.026;2024-03-22T00:33:32;82.47;;;45.33;;
21392;SDS011;10857;52.228;21.026;2024-03-22T00:35:58;91.80;;;46.80;;
21392;SDS011;10857;52.228;21.026;2024-03-22T00:38:24;87.07;;;45.80;;
21392;SDS011;10857;52.228;21.026;2024-03-22T00:40:50;90.97;;;47.47;;
21392;SDS011;10857;52.228;21.026;2024-03-22T00:43:16;86.53;;;47.03;;
21392;SDS011;10857;52.228;21.026;2024-03-22T00:45:42;87.97;;;47.60;;
21392;SDS011;10857;52.228;21.026;2024-03-22T00:48:08;93.73;;;47.73;;
21392;SDS011;10857;52.228;21.026;2024-03-22T00:50:35;87.77;;;48.40;;
21392;SDS011;10857;52.228;21.026;2024-03-22T00:53:01;96.80;;;50.53;;
21392;SDS011;10857;52.228;21.026;2024-03-22T00:55:28;91.13;;;49.33;;
21392;SDS011;10857;52.228;21.026;2024-03-22T00:57:54;92.40;;;49.60;;
21392;SDS011;10857;52.228;21.026;2024-03-22T01:00:20;90.43;;;48.23;;
21392;SDS011;10857;52.228;21.026;2024-03-22T01:02:47;91.97;;;49.97;;
21392;SDS011;10857;52.228;21.026;2024-03-22T01:05:13;93.70;;;49.93;;
21392;SDS011;10857;52.228;21.026;2024-03-22T01:07:39;96.23;;;50.60;;
21392;SDS011;10857;52.228;21.026;2024-03-22T01:10:05;91.97;;;50.70;;
21392;SDS011;10857;52.228;21.026;2024-03-22T01:12:32;90.27;;;49.33;;
21392;SDS011;10857;52.228;21.026;2024-03-22T01:14:58;90.60;;;49.27;;
21392;SDS011;10857;52.228;21.026;2024-03-22T01:17:24;93.93;;;51.17;;
21392;SDS011;10857;52.228;21.026;2024-03-22T01:19:50;94.80;;;52.40;;
21392;SDS011;10857;52.228;21.026;2024-03-22T01:22:17;98.87;;;51.83;;
21392;SDS011;10857;52.228;21.026;2024-03-22T01:24:44;96.63;;;52.57;;
21392;SDS011;10857;52.228;21.026;2024-03-22T01:27:10;102.87;;;53.03;;
21392;SDS011;10857;52.228;21.026;2024-03-22T01:29:37;99.50;;;52.70;;
21392;SDS011;10857;52.228;21.026;2024-03-22T01:32:03;104.17;;;54.50;;
21392;SDS011;10857;52.228;21.026;2024-03-22T01:34:29;100.80;;;53.60;;
21392;SDS011;10857;52.228;21.026;2024-03-22T01:36:55;99.80;;;53.97;;
21392;SDS011;10857;52.228;21.026;2024-03-22T01:39:21;103.87;;;53.97;;
21392;SDS011;10857;52.228;21.026;2024-03-22T01:41:48;102.57;;;55.90;;
21392;SDS011;10857;52.228;21.026;2024-03-22T01:44:15;108.20;;;56.23;;
21392;SDS011;10857;52.228;21.026;2024-03-22T01:46:41;109.03;;;55.63;;
21392;SDS011;10857;52.228;21.026;2024-03-22T01:49:16;112.97;;;58.77;;
21392;SDS011;10857;52.228;21.026;2024-03-22T01:51:42;115.70;;;58.33;;
21392;SDS011;10857;52.228;21.026;2024-03-22T01:54:09;121.03;;;59.40;;
21392;SDS011;10857;52.228;21.026;2024-03-22T01:56:39;123.03;;;59.27;;
21392;SDS011;10857;52.228;21.026;2024-03-22T01:59:05;129.30;;;61.00;;
21392;SDS011;10857;52.228;21.026;2024-03-22T02:01:32;132.63;;;63.50;;
21392;SDS011;10857;52.228;21.026;2024-03-22T02:03:58;145.00;;;62.37;;
21392;SDS011;10857;52.228;21.026;2024-03-22T02:06:24;137.77;;;63.80;;
21392;SDS011;10857;52.228;21.026;2024-03-22T02:08:51;148.27;;;64.37;;
21392;SDS011;10857;52.228;21.026;2024-03-22T02:11:17;156.10;;;67.13;;
21392;SDS011;10857;52.228;21.026;2024-03-22T02:13:44;151.03;;;69.93;;
21392;SDS011;10857;52.228;21.026;2024-03-22T02:16:10;161.37;;;70.87;;
21392;SDS011;10857;52.228;21.026;2024-03-22T02:18:36;159.37;;;71.23;;
21392;SDS011;10857;52.228;21.026;2024-03-22T02:21:02;166.83;;;70.53;;
21392;SDS011;10857;52.228;21.026;2024-03-22T02:23:35;154.13;;;68.27;;
21392;SDS011;10857;52.228;21.026;2024-03-22T02:26:05;172.83;;;71.40;;
21392;SDS011;10857;52.228;21.026;2024-03-22T02:28:32;184.47;;;73.63;;
21392;SDS011;10857;52.228;21.026;2024-03-22T02:30:59;176.50;;;70.53;;
21392;SDS011;10857;52.228;21.026;2024-03-22T02:33:25;173.17;;;70.13;;
21392;SDS011;10857;52.228;21.026;2024-03-22T02:35:52;168.60;;;69.37;;
21392;SDS011;10857;52.228;21.026;2024-03-22T02:38:18;166.07;;;68.07;;
21392;SDS011;10857;52.228;21.026;2024-03-22T02:40:45;162.67;;;68.47;;
21392;SDS011;10857;52.228;21.026;2024-03-22T02:43:12;160.23;;;66.50;;
21392;SDS011;10857;52.228;21.026;2024-03-22T02:45:38;163.83;;;68.00;;
21392;SDS011;10857;52.228;21.026;2024-03-22T02:48:04;171.13;;;68.70;;
21392;SDS011;10857;52.228;21.026;2024-03-22T02:50:34;171.93;;;68.23;;
21392;SDS011;10857;52.228;21.026;2024-03-22T02:53:04;171.63;;;68.87;;
21392;SDS011;10857;52.228;21.026;2024-03-22T02:55:30;165.33;;;67.97;;
21392;SDS011;10857;52.228;21.026;2024-03-22T02:58:06;170.50;;;68.03;;
21392;SDS011;10857;52.228;21.026;2024-03-22T03:00:39;172.87;;;69.37;;
21392;SDS011;10857;52.228;21.026;2024-03-22T03:03:05;173.87;;;68.40;;
21392;SDS011;10857;52.228;21.026;2024-03-22T03:05:31;178.90;;;70.17;;
21392;SDS011;10857;52.228;21.026;2024-03-22T03:07:58;166.37;;;66.43;;
21392;SDS011;10857;52.228;21.026;2024-03-22T03:10:24;177.93;;;69.20;;
21392;SDS011;10857;52.228;21.026;2024-03-22T03:12:51;175.60;;;69.53;;
21392;SDS011;10857;52.228;21.026;2024-03-22T03:15:17;174.13;;;67.30;;
21392;SDS011;10857;52.228;21.026;2024-03-22T03:17:43;171.10;;;66.87;;
21392;SDS011;10857;52.228;21.026;2024-03-22T03:20:09;178.43;;;68.10;;
21392;SDS011;10857;52.228;21.026;2024-03-22T03:22:39;180.83;;;65.87;;
21392;SDS011;10857;52.228;21.026;2024-03-22T03:25:06;180.30;;;66.07;;
21392;SDS011;10857;52.228;21.026;2024-03-22T03:27:32;190.30;;;66.10;;
21392;SDS011;10857;52.228;21.026;2024-03-22T03:29:59;192.20;;;68.83;;
21392;SDS011;10857;52.228;21.026;2024-03-22T03:32:26;191.53;;;69.50;;
21392;SDS011;10857;52.228;21.026;2024-03-22T03:34:52;185.40;;;70.30;;
21392;SDS011;10857;52.228;21.026;2024-03-22T03:37:18;181.53;;;70.33;;
21392;SDS011;10857;52.228;21.026;2024-03-22T03:39:44;176.93;;;68.00;;
21392;SDS011;10857;52.228;21.026;2024-03-22T03:42:10;171.03;;;67.30;;
21392;SDS011;10857;52.228;21.026;2024-03-22T03:44:36;168.80;;;66.57;;
21392;SDS011;10857;52.228;21.026;2024-03-22T03:47:02;162.03;;;63.83;;
21392;SDS011;10857;52.228;21.026;2024-03-22T03:49:29;157.63;;;60.23;;
21392;SDS011;10857;52.228;21.026;2024-03-22T03:51:55;145.10;;;57.37;;
21392;SDS011;10857;52.228;21.026;2024-03-22T03:54:21;155.73;;;59.53;;
21392;SDS011;10857;52.228;21.026;2024-03-22T03:56:47;148.77;;;58.30;;
21392;SDS011;10857;52.228;21.026;2024-03-22T03:59:13;142.10;;;55.20;;
21392;SDS011;10857;52.228;21.026;2024-03-22T04:01:39;149.20;;;55.70;;
21392;SDS011;10857;52.228;21.026;2024-03-22T04:04:05;135.83;;;53.87;;
21392;SDS011;10857;52.228;21.026;2024-03-22T04:06:31;129.80;;;50.70;;
21392;SDS011;10857;52.228;21.026;2024-03-22T04:08:57;131.67;;;51.47;;
21392;SDS011;10857;52.228;21.026;2024-03-22T04:11:23;131.40;;;49.97;;
21392;SDS011;10857;52.228;21.026;2024-03-22T04:13:49;128.83;;;50.80;;
21392;SDS011;10857;52.228;21.026;2024-03-22T04:16:15;139.47;;;51.90;;
21392;SDS011;10857;52.228;21.026;2024-03-22T04:18:41;134.00;;;50.67;;
21392;SDS011;10857;52.228;21.026;2024-03-22T04:21:07;121.07;;;49.07;;
21392;SDS011;10857;52.228;21.026;2024-03-22T04:23:33;132.80;;;51.10;;
21392;SDS011;10857;52.228;21.026;2024-03-22T04:26:00;124.70;;;49.50;;
21392;SDS011;10857;52.228;21.026;2024-03-22T04:28:29;128.63;;;50.07;;
21392;SDS011;10857;52.228;21.026;2024-03-22T04:31:08;123.83;;;49.10;;
21392;SDS011;10857;52.228;21.026;2024-03-22T04:33:35;124.53;;;49.50;;
21392;SDS011;10857;52.228;21.026;2024-03-22T04:36:02;130.93;;;50.53;;
21392;SDS011;10857;52.228;21.026;2024-03-22T04:38:29;132.97;;;50.63;;
21392;SDS011;10857;52.228;21.026;2024-03-22T04:40:56;128.30;;;50.53;;
21392;SDS011;10857;52.228;21.026;2024-03-22T04:43:23;130.27;;;51.13;;
21392;SDS011;10857;52.228;21.026;2024-03-22T04:45:49;122.57;;;49.43;;
21392;SDS011;10857;52.228;21.026;2024-03-22T04:48:17;120.63;;;49.13;;
21392;SDS011;10857;52.228;21.026;2024-03-22T04:50:47;130.70;;;49.40;;
21392;SDS011;10857;52.228;21.026;2024-03-22T04:53:19;116.87;;;47.67;;
21392;SDS011;10857;52.228;21.026;2024-03-22T04:55:49;117.80;;;47.87;;
21392;SDS011;10857;52.228;21.026;2024-03-22T04:58:16;106.00;;;45.00;;
21392;SDS011;10857;52.228;21.026;2024-03-22T05:00:42;106.17;;;45.83;;
21392;SDS011;10857;52.228;21.026;2024-03-22T05:03:09;107.37;;;46.67;;
21392;SDS011;10857;52.228;21.026;2024-03-22T05:05:37;99.67;;;44.90;;
21392;SDS011;10857;52.228;21.026;2024-03-22T05:08:04;100.40;;;43.20;;
21392;SDS011;10857;52.228;21.026;2024-03-22T05:10:31;101.77;;;44.07;;
21392;SDS011;10857;52.228;21.026;2024-03-22T05:12:57;106.83;;;44.70;;
21392;SDS011;10857;52.228;21.026;2024-03-22T05:15:24;97.83;;;43.37;;
21392;SDS011;10857;52.228;21.026;2024-03-22T05:17:51;96.97;;;42.90;;
21392;SDS011;10857;52.228;21.026;2024-03-22T05:20:17;93.67;;;42.47;;
21392;SDS011;10857;52.228;21.026;2024-03-22T05:22:43;96.70;;;42.90;;
21392;SDS011;10857;52.228;21.026;2024-03-22T05:25:09;90.60;;;40.77;;
21392;SDS011;10857;52.228;21.026;2024-03-22T05:27:35;88.67;;;42.20;;
21392;SDS011;10857;52.228;21.026;2024-03-22T05:30:02;85.87;;;41.47;;
21392;SDS011;10857;52.228;21.026;2024-03-22T05:32:31;83.83;;;40.00;;
21392;SDS011;10857;52.228;21.026;2024-03-22T05:34:57;85.93;;;39.67;;
21392;SDS011;10857;52.228;21.026;2024-03-22T05:37:23;87.77;;;40.73;;
21392;SDS011;10857;52.228;21.026;2024-03-22T05:39:49;83.50;;;38.97;;
21392;SDS011;10857;52.228;21.026;2024-03-22T05:42:15;78.30;;;37.23;;
21392;SDS011;10857;52.228;21.026;2024-03-22T05:44:41;73.73;;;35.67;;
21392;SDS011;10857;52.228;21.026;2024-03-22T05:47:07;70.67;;;34.13;;
21392;SDS011;10857;52.228;21.026;2024-03-22T05:49:33;72.27;;;35.70;;
21392;SDS011;10857;52.228;21.026;2024-03-22T05:51:59;69.47;;;33.83;;
21392;SDS011;10857;52.228;21.026;2024-03-22T05:54:25;77.77;;;35.93;;
21392;SDS011;10857;52.228;21.026;2024-03-22T05:56:51;69.73;;;33.93;;
21392;SDS011;10857;52.228;21.026;2024-03-22T05:59:18;75.57;;;35.40;;
21392;SDS011;10857;52.228;21.026;2024-03-22T06:01:44;70.63;;;34.30;;
21392;SDS011;10857;52.228;21.026;2024-03-22T06:04:10;72.40;;;35.00;;
21392;SDS011;10857;52.228;21.026;2024-03-22T06:06:36;73.10;;;34.43;;
21392;SDS011;10857;52.228;21.026;2024-03-22T06:09:02;71.23;;;34.83;;
21392;SDS011;10857;52.228;21.026;2024-03-22T06:11:32;70.10;;;35.17;;
21392;SDS011;10857;52.228;21.026;2024-03-22T06:13:58;67.13;;;33.20;;
21392;SDS011;10857;52.228;21.026;2024-03-22T06:16:24;66.87;;;33.83;;
21392;SDS011;10857;52.228;21.026;2024-03-22T06:18:50;64.30;;;33.20;;
21392;SDS011;10857;52.228;21.026;2024-03-22T06:21:17;65.87;;;33.23;;
21392;SDS011;10857;52.228;21.026;2024-03-22T06:23:50;69.40;;;33.37;;
21392;SDS011;10857;52.228;21.026;2024-03-22T06:26:17;69.97;;;33.63;;
21392;SDS011;10857;52.228;21.026;2024-03-22T06:28:44;68.33;;;33.77;;
21392;SDS011;10857;52.228;21.026;2024-03-22T06:31:10;67.13;;;33.43;;
21392;SDS011;10857;52.228;21.026;2024-03-22T06:33:36;67.63;;;32.30;;
21392;SDS011;10857;52.228;21.026;2024-03-22T06:36:02;59.40;;;31.47;;
21392;SDS011;10857;52.228;21.026;2024-03-22T06:38:31;62.93;;;31.33;;
21392;SDS011;10857;52.228;21.026;2024-03-22T06:40:58;57.47;;;29.10;;
21392;SDS011;10857;52.228;21.026;2024-03-22T06:43:24;65.07;;;31.57;;
21392;SDS011;10857;52.228;21.026;2024-03-22T06:45:51;64.77;;;31.40;;
21392;SDS011;10857;52.228;21.026;2024-03-22T06:48:17;65.00;;;32.07;;
21392;SDS011;10857;52.228;21.026;2024-03-22T06:50:43;60.33;;;29.57;;
21392;SDS011;10857;52.228;21.026;2024-03-22T06:53:09;59.67;;;28.70;;
21392;SDS011;10857;52.228;21.026;2024-03-22T06:55:36;58.30;;;28.43;;
21392;SDS011;10857;52.228;21.026;2024-03-22T06:58:02;55.43;;;28.10;;
21392;SDS011;10857;52.228;21.026;2024-03-22T07:00:28;55.80;;;28.57;;
21392;SDS011;10857;52.228;21.026;2024-03-22T07:02:54;58.63;;;28.57;;
21392;SDS011;10857;52.228;21.026;2024-03-22T07:05:21;54.53;;;28.70;;
21392;SDS011;10857;52.228;21.026;2024-03-22T07:07:47;57.97;;;29.97;;
21392;SDS011;10857;52.228;21.026;2024-03-22T07:10:16;57.57;;;30.33;;
21392;SDS011;10857;52.228;21.026;2024-03-22T07:12:42;58.33;;;30.10;;
21392;SDS011;10857;52.228;21.026;2024-03-22T07:15:08;60.63;;;30.67;;
21392;SDS011;10857;52.228;21.026;2024-03-22T07:17:35;59.60;;;31.63;;
21392;SDS011;10857;52.228;21.026;2024-03-22T07:20:01;60.37;;;31.03;;
21392;SDS011;10857;52.228;21.026;2024-03-22T07:22:28;70.23;;;36.47;;
21392;SDS011;10857;52.228;21.026;2024-03-22T07:24:54;77.63;;;39.23;;
21392;SDS011;10857;52.228;21.026;2024-03-22T07:27:21;88.23;;;45.07;;
21392;SDS011;10857;52.228;21.026;2024-03-22T07:29:47;93.53;;;43.80;;
21392;SDS011;10857;52.228;21.026;2024-03-22T07:32:13;79.40;;;39.27;;
21392;SDS011;10857;52.228;21.026;2024-03-22T07:34:39;73.67;;;35.03;;
21392;SDS011;10857;52.228;21.026;2024-03-22T07:37:05;67.13;;;33.53;;
21392;SDS011;10857;52.228;21.026;2024-03-22T07:39:31;73.03;;;35.33;;
21392;SDS011;10857;52.228;21.026;2024-03-22T07:41:57;71.27;;;33.53;;
21392;SDS011;10857;52.228;21.026;2024-03-22T07:44:23;62.13;;;29.87;;
21392;SDS011;10857;52.228;21.026;2024-03-22T07:46:50;61.67;;;34.80;;
21392;SDS011;10857;52.228;21.026;2024-03-22T07:49:16;58.13;;;30.03;;
21392;SDS011;10857;52.228;21.026;2024-03-22T07:51:42;63.23;;;30.50;;
21392;SDS011;10857;52.228;21.026;2024-03-22T07:54:08;62.57;;;28.30;;
21392;SDS011;10857;52.228;21.026;2024-03-22T07:56:34;60.20;;;28.37;;
21392;SDS011;10857;52.228;21.026;2024-03-22T07:59:00;55.53;;;28.10;;
21392;SDS011;10857;52.228;21.026;2024-03-22T08:01:26;53.80;;;27.67;;
21392;SDS011;10857;52.228;21.026;2024-03-22T08:03:52;57.80;;;28.67;;
21392;SDS011;10857;52.228;21.026;2024-03-22T08:06:19;59.63;;;29.07;;
21392;SDS011;10857;52.228;21.026;2024-03-22T08:08:45;60.67;;;30.13;;
21392;SDS011;10857;52.228;21.026;2024-03-22T08:11:11;58.10;;;28.63;;
21392;SDS011;10857;52.228;21.026;2024-03-22T08:13:37;60.33;;;28.73;;
21392;SDS011;10857;52.228;21.026;2024-03-22T08:16:04;59.40;;;29.27;;
21392;SDS011;10857;52.228;21.026;2024-03-22T08:18:31;61.00;;;28.47;;
21392;SDS011;10857;52.228;21.026;2024-03-22T08:20:58;53.73;;;27.23;;
21392;SDS011;10857;52.228;21.026;2024-03-22T08:23:24;56.40;;;27.80;;
21392;SDS011;10857;52.228;21.026;2024-03-22T08:25:51;50.87;;;25.30;;
21392;SDS011;10857;52.228;21.026;2024-03-22T08:28:17;52.07;;;25.70;;
21392;SDS011;10857;52.228;21.026;2024-03-22T08:30:43;53.97;;;26.83;;
21392;SDS011;10857;52.228;21.026;2024-03-22T08:33:09;53.60;;;26.00;;
21392;SDS011;10857;52.228;21.026;2024-03-22T08:35:37;49.60;;;25.80;;
21392;SDS011;10857;52.228;21.026;2024-03-22T08:38:03;47.23;;;25.13;;
21392;SDS011;10857;52.228;21.026;2024-03-22T08:40:30;50.13;;;25.33;;
21392;SDS011;10857;52.228;21.026;2024-03-22T08:42:56;47.93;;;23.70;;
21392;SDS011;10857;52.228;21.026;2024-03-22T08:45:22;45.23;;;23.77;;
21392;SDS011;10857;52.228;21.026;2024-03-22T08:47:49;46.63;;;23.37;;
21392;SDS011;10857;52.228;21.026;2024-03-22T08:50:15;47.03;;;23.60;;
21392;SDS011;10857;52.228;21.026;2024-03-22T08:52:41;47.20;;;23.67;;
21392;SDS011;10857;52.228;21.026;2024-03-22T08:55:07;39.97;;;20.70;;
21392;SDS011;10857;52.228;21.026;2024-03-22T08:57:33;39.03;;;20.73;;
21392;SDS011;10857;52.228;21.026;2024-03-22T08:59:59;44.10;;;23.23;;
21392;SDS011;10857;52.228;21.026;2024-03-22T09:02:25;47.13;;;24.03;;
21392;SDS011;10857;52.228;21.026;2024-03-22T09:04:52;46.53;;;24.53;;
21392;SDS011;10857;52.228;21.026;2024-03-22T09:07:19;52.47;;;27.13;;
21392;SDS011;10857;52.228;21.026;2024-03-22T09:09:46;53.00;;;27.10;;
21392;SDS011;10857;52.228;21.026;2024-03-22T09:12:12;53.83;;;28.93;;
21392;SDS011;10857;52.228;21.026;2024-03-22T09:14:38;52.93;;;26.87;;
21392;SDS011;10857;52.228;21.026;2024-03-22T09:17:04;50.23;;;26.50;;
21392;SDS011;10857;52.228;21.026;2024-03-22T09:19:30;45.43;;;25.10;;
21392;SDS011;10857;52.228;21.026;2024-03-22T09:21:57;46.17;;;25.50;;
21392;SDS011;10857;52.228;21.026;2024-03-22T09:24:23;52.53;;;26.13;;
21392;SDS011;10857;52.228;21.026;2024-03-22T09:26:49;51.43;;;25.77;;
21392;SDS011;10857;52.228;21.026;2024-03-22T09:29:15;50.40;;;25.00;;
21392;SDS011;10857;52.228;21.026;2024-03-22T09:31:42;43.87;;;23.50;;
21392;SDS011;10857;52.228;21.026;2024-03-22T09:34:08;41.53;;;22.67;;
21392;SDS011;10857;52.228;21.026;2024-03-22T09:36:34;42.67;;;22.20;;
21392;SDS011;10857;52.228;21.026;2024-03-22T09:39:01;39.90;;;21.70;;
21392;SDS011;10857;52.228;21.026;2024-03-22T09:41:27;38.30;;;21.43;;
21392;SDS011;10857;52.228;21.026;2024-03-22T09:43:57;45.20;;;23.10;;
21392;SDS011;10857;52.228;21.026;2024-03-22T09:46:26;44.30;;;23.93;;
21392;SDS011;10857;52.228;21.026;2024-03-22T09:48:53;49.43;;;25.97;;
21392;SDS011;10857;52.228;21.026;2024-03-22T09:51:20;50.53;;;25.87;;
21392;SDS011;10857;52.228;21.026;2024-03-22T09:53:50;48.87;;;26.43;;
21392;SDS011;10857;52.228;21.026;2024-03-22T09:56:17;50.37;;;27.00;;
21392;SDS011;10857;52.228;21.026;2024-03-22T09:58:46;46.77;;;25.80;;
21392;SDS011;10857;52.228;21.026;2024-03-22T10:01:12;48.83;;;26.37;;
21392;SDS011;10857;52.228;21.026;2024-03-22T10:03:39;44.93;;;25.63;;
21392;SDS011;10857;52.228;21.026;2024-03-22T10:06:05;48.73;;;26.03;;
21392;SDS011;10857;52.228;21.026;2024-03-22T10:08:32;46.17;;;25.30;;
21392;SDS011;10857;52.228;21.026;2024-03-22T10:11:01;48.07;;;26.93;;
21392;SDS011;10857;52.228;21.026;2024-03-22T10:13:28;56.67;;;27.77;;
21392;SDS011;10857;52.228;21.026;2024-03-22T10:15:54;52.97;;;29.03;;
21392;SDS011;10857;52.228;21.026;2024-03-22T10:18:22;65.03;;;31.40;;
21392;SDS011;10857;52.228;21.026;2024-03-22T10:20:58;58.67;;;30.87;;
21392;SDS011;10857;52.228;21.026;2024-03-22T10:23:25;56.00;;;29.10;;
21392;SDS011;10857;52.228;21.026;2024-03-22T10:25:52;56.83;;;31.40;;
21392;SDS011;10857;52.228;21.026;2024-03-22T10:28:18;54.13;;;29.80;;
21392;SDS011;10857;52.228;21.026;2024-03-22T10:30:44;55.23;;;29.00;;
21392;SDS011;10857;52.228;21.026;2024-03-22T10:33:13;53.37;;;28.03;;
21392;SDS011;10857;52.228;21.026;2024-03-22T10:35:40;50.73;;;27.77;;
21392;SDS011;10857;52.228;21.026;2024-03-22T10:38:08;47.17;;;27.87;;
21392;SDS011;10857;52.228;21.026;2024-03-22T10:40:42;50.80;;;28.27;;
21392;SDS011;10857;52.228;21.026;2024-03-22T10:43:12;48.93;;;25.93;;
21392;SDS011;10857;52.228;21.026;2024-03-22T10:45:41;42.50;;;24.47;;
21392;SDS011;10857;52.228;21.026;2024-03-22T10:48:11;46.03;;;24.80;;
21392;SDS011;10857;52.228;21.026;2024-03-22T10:50:38;47.03;;;27.13;;
21392;SDS011;10857;52.228;21.026;2024-03-22T10:53:11;50.37;;;25.87;;
21392;SDS011;10857;52.228;21.026;2024-03-22T10:55:42;47.10;;;26.47;;
21392;SDS011;10857;52.228;21.026;2024-03-22T10:58:22;51.77;;;27.80;;
21392;SDS011;10857;52.228;21.026;2024-03-22T11:00:53;52.80;;;28.17;;
21392;SDS011;10857;52.228;21.026;2024-03-22T11:03:21;50.83;;;27.87;;
21392;SDS011;10857;52.228;21.026;2024-03-22T11:05:50;52.73;;;26.33;;
21392;SDS011;10857;52.228;21.026;2024-03-22T11:08:23;53.53;;;28.43;;
21392;SDS011;10857;52.228;21.026;2024-03-22T11:10:53;53.80;;;27.60;;
21392;SDS011;10857;52.228;21.026;2024-03-22T11:13:20;48.03;;;26.93;;
21392;SDS011;10857;52.228;21.026;2024-03-22T11:15:47;50.97;;;27.90;;
21392;SDS011;10857;52.228;21.026;2024-03-22T11:18:14;50.87;;;27.40;;
21392;SDS011;10857;52.228;21.026;2024-03-22T11:20:41;51.23;;;27.13;;
21392;SDS011;10857;52.228;21.026;2024-03-22T11:23:08;45.87;;;25.10;;
21392;SDS011;10857;52.228;21.026;2024-03-22T11:25:34;47.80;;;26.50;;
21392;SDS011;10857;52.228;21.026;2024-03-22T11:28:01;45.27;;;25.23;;
21392;SDS011;10857;52.228;21.026;2024-03-22T11:30:28;43.33;;;24.83;;
21392;SDS011;10857;52.228;21.026;2024-03-22T11:32:55;43.53;;;24.57;;
21392;SDS011;10857;52.228;21.026;2024-03-22T11:35:21;39.77;;;22.47;;
21392;SDS011;10857;52.228;21.026;2024-03-22T11:37:49;40.93;;;23.87;;
21392;SDS011;10857;52.228;21.026;2024-03-22T11:40:16;38.50;;;21.97;;
21392;SDS011;10857;52.228;21.026;2024-03-22T11:42:43;40.93;;;22.37;;
21392;SDS011;10857;52.228;21.026;2024-03-22T11:45:17;40.10;;;22.97;;
21392;SDS011;10857;52.228;21.026;2024-03-22T11:47:44;38.70;;;22.20;;
21392;SDS011;10857;52.228;21.026;2024-03-22T11:50:12;40.10;;;21.27;;
21392;SDS011;10857;52.228;21.026;2024-03-22T11:52:42;41.00;;;22.10;;
21392;SDS011;10857;52.228;21.026;2024-03-22T11:55:11;41.03;;;22.43;;
21392;SDS011;10857;52.228;21.026;2024-03-22T11:57:38;37.00;;;21.53;;
21392;SDS011;10857;52.228;21.026;2024-03-22T12:00:05;38.60;;;21.57;;
21392;SDS011;10857;52.228;21.026;2024-03-22T12:02:37;35.63;;;19.80;;
21392;SDS011;10857;52.228;21.026;2024-03-22T12:05:04;33.50;;;20.13;;
21392;SDS011;10857;52.228;21.026;2024-03-22T12:07:31;34.23;;;20.40;;
21392;SDS011;10857;52.228;21.026;2024-03-22T12:09:58;40.00;;;19.67;;
21392;SDS011;10857;52.228;21.026;2024-03-22T12:12:24;32.63;;;19.30;;
21392;SDS011;10857;52.228;21.026;2024-03-22T12:14:51;32.73;;;18.73;;
21392;SDS011;10857;52.228;21.026;2024-03-22T12:17:17;31.43;;;17.93;;
21392;SDS011;10857;52.228;21.026;2024-03-22T12:19:43;30.00;;;17.53;;
21392;SDS011;10857;52.228;21.026;2024-03-22T12:22:09;33.13;;;18.57;;
21392;SDS011;10857;52.228;21.026;2024-03-22T12:24:35;32.10;;;18.47;;
21392;SDS011;10857;52.228;21.026;2024-03-22T12:27:02;31.43;;;17.83;;
21392;SDS011;10857;52.228;21.026;2024-03-22T12:29:28;28.23;;;16.37;;
21392;SDS011;10857;52.228;21.026;2024-03-22T12:31:54;28.13;;;16.10;;
21392;SDS011;10857;52.228;21.026;2024-03-22T12:34:21;29.23;;;16.53;;
21392;SDS011;10857;52.228;21.026;2024-03-22T12:36:47;25.40;;;16.00;;
21392;SDS011;10857;52.228;21.026;2024-03-22T12:39:13;28.13;;;16.63;;
21392;SDS011;10857;52.228;21.026;2024-03-22T12:41:39;28.70;;;17.27;;
21392;SDS011;10857;52.228;21.026;2024-03-22T12:44:06;32.23;;;16.70;;
21392;SDS011;10857;52.228;21.026;2024-03-22T12:46:32;27.17;;;16.30;;
21392;SDS011;10857;52.228;21.026;2024-03-22T12:48:59;27.73;;;16.37;;
21392;SDS011;10857;52.228;21.026;2024-03-22T12:51:25;25.27;;;15.03;;
21392;SDS011;10857;52.228;21.026;2024-03-22T12:53:51;27.13;;;14.73;;
21392;SDS011;10857;52.228;21.026;2024-03-22T12:56:18;24.27;;;14.13;;
21392;SDS011;10857;52.228;21.026;2024-03-22T12:58:44;24.60;;;14.30;;
21392;SDS011;10857;52.228;21.026;2024-03-22T13:01:11;22.93;;;14.33;;
21392;SDS011;10857;52.228;21.026;2024-03-22T13:03:37;24.70;;;14.93;;
21392;SDS011;10857;52.228;21.026;2024-03-22T13:06:03;23.73;;;14.37;;
21392;SDS011;10857;52.228;21.026;2024-03-22T13:08:33;24.57;;;14.67;;
21392;SDS011;10857;52.228;21.026;2024-03-22T13:10:59;25.13;;;15.10;;
21392;SDS011;10857;52.228;21.026;2024-03-22T13:13:25;26.77;;;15.20;;
21392;SDS011;10857;52.228;21.026;2024-03-22T13:15:52;25.43;;;15.37;;
21392;SDS011;10857;52.228;21.026;2024-03-22T13:18:18;26.20;;;15.47;;
21392;SDS011;10857;52.228;21.026;2024-03-22T13:20:46;28.27;;;15.83;;
21392;SDS011;10857;52.228;21.026;2024-03-22T13:23:12;27.27;;;16.40;;
21392;SDS011;10857;52.228;21.026;2024-03-22T13:25:38;27.93;;;16.77;;
21392;SDS011;10857;52.228;21.026;2024-03-22T13:28:04;26.53;;;15.80;;
21392;SDS011;10857;52.228;21.026;2024-03-22T13:30:31;27.43;;;16.63;;
21392;SDS011;10857;52.228;21.026;2024-03-22T13:32:57;27.37;;;16.53;;
21392;SDS011;10857;52.228;21.026;2024-03-22T13:35:24;27.53;;;16.50;;
21392;SDS011;10857;52.228;21.026;2024-03-22T13:37:50;27.07;;;16.80;;
21392;SDS011;10857;52.228;21.026;2024-03-22T13:40:16;27.73;;;17.07;;
21392;SDS011;10857;52.228;21.026;2024-03-22T13:42:43;28.97;;;17.53;;
21392;SDS011;10857;52.228;21.026;2024-03-22T13:45:09;29.47;;;17.90;;
21392;SDS011;10857;52.228;21.026;2024-03-22T13:47:35;28.50;;;17.97;;
21392;SDS011;10857;52.228;21.026;2024-03-22T13:50:06;34.07;;;17.83;;
21392;SDS011;10857;52.228;21.026;2024-03-22T13:52:34;33.37;;;18.67;;
21392;SDS011;10857;52.228;21.026;2024-03-22T13:55:03;30.40;;;17.93;;
21392;SDS011;10857;52.228;21.026;2024-03-22T13:57:30;30.27;;;19.00;;
21392;SDS011;10857;52.228;21.026;2024-03-22T13:59:57;29.40;;;18.13;;
21392;SDS011;10857;52.228;21.026;2024-03-22T14:02:24;29.57;;;17.60;;
21392;SDS011;10857;52.228;21.026;2024-03-22T14:04:50;32.37;;;18.33;;